Time;durP1;ratioP1;P1;durP2;ratioP2;P2;SDS_P1;SDS_P2;PMS_P1;PMS_P2;Temp;Humidity;BMP_temperature;BMP_pressure;BME280_temperature;BME280_humidity;BME280_pressure;Samples;Min_cycle;Max_cycle;Signal;HPM_P1;HPM_P2
2021/03/30 00:01:04;;;;;;;14.30;6.30;;;;;;;;;;5114815;28;20468;-65
2021/03/30 00:03:32;;;;;;;9.15;6.40;;;;;;;;;;5114623;28;20584;-65
2021/03/30 00:05:59;;;;;;;11.20;7.28;;;;;;;;;;5114673;28;20227;-66
2021/03/30 00:08:25;;;;;;;12.77;7.80;;;;;;;;;;5114733;28;20702;-64
2021/03/30 00:10:52;;;;;;;12.82;8.15;;;;;;;;;;5114234;28;20528;-65
2021/03/30 00:13:19;;;;;;;10.23;7.57;;;;;;;;;;5114557;28;20236;-65
2021/03/30 00:15:46;;;;;;;9.83;7.70;;;;;;;;;;5114514;28;20506;-65
2021/03/30 00:18:13;;;;;;;15.97;8.57;;;;;;;;;;5114759;28;20518;-65
2021/03/30 00:20:40;;;;;;;11.65;7.43;;;;;;;;;;5114129;28;21014;-66
2021/03/30 00:23:07;;;;;;;9.93;7.27;;;;;;;;;;5114347;28;20302;-64
2021/03/30 00:25:34;;;;;;;10.88;7.25;;;;;;;;;;5114515;28;20481;-65
2021/03/30 00:28:01;;;;;;;14.75;7.95;;;;;;;;;;5114233;28;20423;-65
2021/03/30 00:30:27;;;;;;;8.80;7.13;;;;;;;;;;5114521;28;20279;-64
2021/03/30 00:32:54;;;;;;;11.90;7.43;;;;;;;;;;5114283;28;20444;-64
2021/03/30 00:35:21;;;;;;;14.40;8.27;;;;;;;;;;5114380;28;20247;-65
2021/03/30 00:37:49;;;;;;;12.07;7.65;;;;;;;;;;5114142;28;20504;-65
2021/03/30 00:40:16;;;;;;;10.73;7.70;;;;;;;;;;5113862;28;20243;-65
2021/03/30 00:42:43;;;;;;;10.20;6.30;;;;;;;;;;5113726;28;20481;-65
2021/03/30 00:45:11;;;;;;;10.57;7.40;;;;;;;;;;5114114;28;20249;-65
2021/03/30 00:47:39;;;;;;;12.93;7.93;;;;;;;;;;5114355;28;20286;-65
2021/03/30 00:50:07;;;;;;;8.20;6.68;;;;;;;;;;5114056;28;20291;-64
2021/03/30 00:52:34;;;;;;;8.52;7.00;;;;;;;;;;5114431;28;20282;-64
2021/03/30 00:55:01;;;;;;;11.98;7.85;;;;;;;;;;5114830;28;20226;-64
2021/03/30 00:57:28;;;;;;;11.23;7.65;;;;;;;;;;5113532;28;20282;-65
2021/03/30 00:59:55;;;;;;;11.75;8.23;;;;;;;;;;5117096;28;20240;-65
2021/03/30 01:02:21;;;;;;;11.90;8.18;;;;;;;;;;5118905;28;20293;-64
2021/03/30 01:04:48;;;;;;;12.32;7.45;;;;;;;;;;5118843;28;20314;-64
2021/03/30 01:07:15;;;;;;;11.18;7.53;;;;;;;;;;5117788;28;20293;-64
2021/03/30 01:09:48;;;;;;;12.02;7.32;;;;;;;;;;5118157;28;20286;-64
2021/03/30 01:12:29;;;;;;;9.27;7.55;;;;;;;;;;5118157;28;20224;-65
2021/03/30 01:15:02;;;;;;;12.30;8.40;;;;;;;;;;5118346;28;20220;-65
2021/03/30 01:17:34;;;;;;;11.57;8.52;;;;;;;;;;5118476;28;20638;-64
2021/03/30 01:20:06;;;;;;;11.85;8.98;;;;;;;;;;5117850;28;20193;-65
2021/03/30 01:22:51;;;;;;;12.13;7.93;;;;;;;;;;5118311;28;20231;-64
2021/03/30 01:25:18;;;;;;;10.98;8.35;;;;;;;;;;5118780;28;20184;-65
2021/03/30 01:27:49;;;;;;;10.10;7.70;;;;;;;;;;5117562;28;20279;-65
2021/03/30 01:30:18;;;;;;;9.00;7.88;;;;;;;;;;5118032;28;20636;-64
2021/03/30 01:32:49;;;;;;;10.68;8.45;;;;;;;;;;5117352;28;20207;-64
2021/03/30 01:35:18;;;;;;;11.68;9.02;;;;;;;;;;5118176;28;20613;-65
2021/03/30 01:37:46;;;;;;;11.60;8.73;;;;;;;;;;5118152;28;20196;-65
2021/03/30 01:40:14;;;;;;;13.05;9.38;;;;;;;;;;5117250;28;20286;-65
2021/03/30 01:42:42;;;;;;;18.55;8.60;;;;;;;;;;5117118;28;20303;-64
2021/03/30 01:45:09;;;;;;;12.32;9.25;;;;;;;;;;5117701;28;20621;-64
2021/03/30 01:47:38;;;;;;;13.48;8.80;;;;;;;;;;5117391;28;20286;-64
2021/03/30 01:50:06;;;;;;;10.95;8.98;;;;;;;;;;5117419;28;20588;-64
2021/03/30 01:52:34;;;;;;;12.55;8.57;;;;;;;;;;5117107;28;20744;-64
2021/03/30 01:55:01;;;;;;;9.57;8.45;;;;;;;;;;5116905;28;20199;-64
2021/03/30 01:57:29;;;;;;;12.70;8.68;;;;;;;;;;5117296;28;20285;-65
2021/03/30 01:59:56;;;;;;;17.08;8.32;;;;;;;;;;5117339;28;20231;-64
2021/03/30 02:02:23;;;;;;;17.17;9.13;;;;;;;;;;5116891;28;20291;-64
2021/03/30 02:04:51;;;;;;;13.70;9.20;;;;;;;;;;5116985;28;20309;-64
2021/03/30 02:07:18;;;;;;;13.30;8.82;;;;;;;;;;5117294;28;20287;-64
2021/03/30 02:09:48;;;;;;;12.55;8.95;;;;;;;;;;5116408;28;20199;-64
2021/03/30 02:12:16;;;;;;;12.20;8.32;;;;;;;;;;5117067;28;20269;-66
2021/03/30 02:14:43;;;;;;;12.10;8.07;;;;;;;;;;5116864;28;20287;-65
2021/03/30 02:17:12;;;;;;;9.93;8.70;;;;;;;;;;5116862;28;20200;-65
2021/03/30 02:19:43;;;;;;;10.60;8.32;;;;;;;;;;5116754;28;20235;-65
2021/03/30 02:22:15;;;;;;;14.60;8.77;;;;;;;;;;5116415;28;20227;-65
2021/03/30 02:24:43;;;;;;;16.15;8.95;;;;;;;;;;5116323;28;20246;-65
2021/03/30 02:27:11;;;;;;;13.95;9.80;;;;;;;;;;5116878;28;20199;-64
2021/03/30 02:29:39;;;;;;;16.33;8.88;;;;;;;;;;5117189;28;20195;-64
2021/03/30 02:32:09;;;;;;;19.40;9.93;;;;;;;;;;5116226;28;20615;-64
2021/03/30 02:34:36;;;;;;;14.20;9.55;;;;;;;;;;5116168;28;20683;-64
2021/03/30 02:37:03;;;;;;;11.60;8.38;;;;;;;;;;5116810;28;20277;-64
2021/03/30 02:39:31;;;;;;;10.85;9.32;;;;;;;;;;5116371;28;20198;-64
2021/03/30 02:41:59;;;;;;;14.20;9.75;;;;;;;;;;5116027;28;20226;-64
2021/03/30 02:44:26;;;;;;;12.85;9.95;;;;;;;;;;5116562;28;20383;-64
2021/03/30 02:46:55;;;;;;;14.27;9.32;;;;;;;;;;5116249;28;20287;-64
2021/03/30 02:49:22;;;;;;;12.15;9.60;;;;;;;;;;5115848;28;20219;-64
2021/03/30 02:51:51;;;;;;;16.10;10.57;;;;;;;;;;5115864;28;20229;-65
2021/03/30 02:54:18;;;;;;;19.90;10.90;;;;;;;;;;5115819;28;20285;-65
2021/03/30 02:56:47;;;;;;;13.70;11.57;;;;;;;;;;5115881;28;20616;-64
2021/03/30 02:59:14;;;;;;;18.08;10.18;;;;;;;;;;5115706;28;20645;-64
2021/03/30 03:01:41;;;;;;;17.05;10.50;;;;;;;;;;5115697;28;20290;-64
2021/03/30 03:04:08;;;;;;;21.67;10.15;;;;;;;;;;5115836;28;20234;-64
2021/03/30 03:06:36;;;;;;;13.90;10.20;;;;;;;;;;5116128;28;20693;-65
2021/03/30 03:09:04;;;;;;;18.35;10.38;;;;;;;;;;5115822;28;20227;-65
2021/03/30 03:11:31;;;;;;;18.00;10.15;;;;;;;;;;5115720;28;20694;-64
2021/03/30 03:13:59;;;;;;;16.40;11.07;;;;;;;;;;5115371;28;20285;-65
2021/03/30 03:16:27;;;;;;;15.50;11.02;;;;;;;;;;5115342;28;20208;-64
2021/03/30 03:18:53;;;;;;;16.10;11.15;;;;;;;;;;5115827;28;20223;-65
2021/03/30 03:21:24;;;;;;;15.02;10.25;;;;;;;;;;5115011;28;20289;-65
2021/03/30 03:23:50;;;;;;;20.38;11.35;;;;;;;;;;5114486;28;20293;-65
2021/03/30 03:26:17;;;;;;;14.75;10.95;;;;;;;;;;5115396;28;20199;-64
2021/03/30 03:28:44;;;;;;;16.15;10.10;;;;;;;;;;5115462;28;20195;-64
2021/03/30 03:31:12;;;;;;;17.85;10.90;;;;;;;;;;5115708;28;20289;-64
2021/03/30 03:33:39;;;;;;;14.13;11.65;;;;;;;;;;5115336;28;20281;-65
2021/03/30 03:36:10;;;;;;;16.85;11.18;;;;;;;;;;5114923;28;20289;-65
2021/03/30 03:38:38;;;;;;;18.08;10.38;;;;;;;;;;5115633;28;20683;-65
2021/03/30 03:41:06;;;;;;;17.65;11.43;;;;;;;;;;5115196;28;20200;-65
2021/03/30 03:43:33;;;;;;;17.73;10.75;;;;;;;;;;5115354;28;20612;-65
2021/03/30 03:46:00;;;;;;;17.95;10.90;;;;;;;;;;5114778;28;20281;-65
2021/03/30 03:48:27;;;;;;;17.63;10.80;;;;;;;;;;5114738;28;20205;-65
2021/03/30 03:50:55;;;;;;;19.95;13.02;;;;;;;;;;5114746;28;20225;-65
2021/03/30 03:53:22;;;;;;;18.77;11.35;;;;;;;;;;5115400;28;20289;-64
2021/03/30 03:55:51;;;;;;;16.75;11.25;;;;;;;;;;5115369;28;20201;-65
2021/03/30 03:58:20;;;;;;;15.65;10.38;;;;;;;;;;5115155;28;20277;-65
2021/03/30 04:00:47;;;;;;;22.23;11.95;;;;;;;;;;5115656;28;20284;-64
2021/03/30 04:03:19;;;;;;;19.35;11.75;;;;;;;;;;5114703;28;20322;-64
2021/03/30 04:05:52;;;;;;;16.88;11.35;;;;;;;;;;5114693;28;20664;-64
2021/03/30 04:08:20;;;;;;;20.85;11.95;;;;;;;;;;5115227;28;20223;-65
2021/03/30 04:10:48;;;;;;;18.75;11.95;;;;;;;;;;5114675;28;20229;-65
2021/03/30 04:13:15;;;;;;;19.05;11.90;;;;;;;;;;5114301;28;20190;-65
2021/03/30 04:15:42;;;;;;;18.00;11.30;;;;;;;;;;5114553;27;20221;-65
2021/03/30 04:18:09;;;;;;;19.77;11.55;;;;;;;;;;5114585;28;20222;-64
2021/03/30 04:20:36;;;;;;;21.08;12.88;;;;;;;;;;5114603;28;20206;-65
2021/03/30 04:23:04;;;;;;;19.02;11.48;;;;;;;;;;5114119;28;20306;-64
2021/03/30 04:25:31;;;;;;;18.60;11.98;;;;;;;;;;5114318;28;20733;-64
2021/03/30 04:27:58;;;;;;;19.25;11.43;;;;;;;;;;5114596;28;20360;-64
2021/03/30 04:30:25;;;;;;;22.05;12.00;;;;;;;;;;5114343;28;20194;-64
2021/03/30 04:32:52;;;;;;;19.30;12.05;;;;;;;;;;5113975;28;20237;-63
2021/03/30 04:35:19;;;;;;;18.55;11.45;;;;;;;;;;5112457;28;20290;-64
2021/03/30 04:37:46;;;;;;;19.42;12.30;;;;;;;;;;5113160;28;20198;-64
2021/03/30 04:40:14;;;;;;;20.52;12.52;;;;;;;;;;5112564;28;20237;-64
2021/03/30 04:42:41;;;;;;;21.55;11.85;;;;;;;;;;5112776;28;20229;-64
2021/03/30 04:45:09;;;;;;;19.70;12.00;;;;;;;;;;5112700;28;20735;-64
2021/03/30 04:47:36;;;;;;;15.60;11.95;;;;;;;;;;5112615;28;20234;-64
2021/03/30 04:50:02;;;;;;;17.77;11.15;;;;;;;;;;5113740;28;20201;-64
2021/03/30 04:52:29;;;;;;;21.52;12.68;;;;;;;;;;5113200;28;20659;-64
2021/03/30 04:54:56;;;;;;;20.08;11.00;;;;;;;;;;5112669;28;20287;-64
2021/03/30 04:57:24;;;;;;;17.77;11.63;;;;;;;;;;5112509;28;20773;-64
2021/03/30 04:59:51;;;;;;;20.05;11.93;;;;;;;;;;5112744;28;20246;-64
2021/03/30 05:02:17;;;;;;;19.95;12.20;;;;;;;;;;5113298;28;20196;-64
2021/03/30 05:04:44;;;;;;;21.40;13.10;;;;;;;;;;5112072;28;20320;-64
2021/03/30 05:07:11;;;;;;;22.90;12.73;;;;;;;;;;5113848;28;20300;-64
2021/03/30 05:09:37;;;;;;;18.58;10.88;;;;;;;;;;5113396;28;20285;-64
2021/03/30 05:12:04;;;;;;;20.52;12.70;;;;;;;;;;5113570;28;20238;-64
2021/03/30 05:14:32;;;;;;;18.63;11.48;;;;;;;;;;5113823;28;20710;-67
2021/03/30 05:16:59;;;;;;;19.35;11.98;;;;;;;;;;5113747;28;20666;-64
2021/03/30 05:19:26;;;;;;;20.80;11.82;;;;;;;;;;5113190;28;20240;-64
2021/03/30 05:21:52;;;;;;;20.20;10.70;;;;;;;;;;5113847;28;20246;-65
2021/03/30 05:24:19;;;;;;;18.52;12.18;;;;;;;;;;5113431;28;20363;-65
2021/03/30 05:26:46;;;;;;;20.05;12.27;;;;;;;;;;5113819;28;20255;-64
2021/03/30 05:29:13;;;;;;;22.65;13.30;;;;;;;;;;5113517;28;20187;-64
2021/03/30 05:31:40;;;;;;;22.00;13.18;;;;;;;;;;5113397;28;20244;-66
2021/03/30 05:34:07;;;;;;;16.50;11.48;;;;;;;;;;5111882;28;20229;-64
2021/03/30 05:36:34;;;;;;;29.13;15.15;;;;;;;;;;5113082;28;20232;-65
2021/03/30 05:39:00;;;;;;;24.17;13.68;;;;;;;;;;5112691;28;20281;-65
2021/03/30 05:41:27;;;;;;;16.42;11.38;;;;;;;;;;5113344;28;20284;-64
2021/03/30 05:43:54;;;;;;;22.45;12.35;;;;;;;;;;5110939;28;20241;-64
2021/03/30 05:46:21;;;;;;;21.65;13.65;;;;;;;;;;5114836;28;20230;-64
2021/03/30 05:48:51;;;;;;;23.35;12.00;;;;;;;;;;5117100;27;20628;-64
2021/03/30 05:51:19;;;;;;;26.88;13.55;;;;;;;;;;5116957;28;20631;-65
2021/03/30 05:53:49;;;;;;;19.65;11.82;;;;;;;;;;5116348;28;20288;-68
2021/03/30 05:56:19;;;;;;;19.48;12.82;;;;;;;;;;5117361;28;20183;-64
2021/03/30 05:58:47;;;;;;;22.42;13.95;;;;;;;;;;5117084;28;20201;-63
2021/03/30 06:01:15;;;;;;;24.38;13.68;;;;;;;;;;5117515;28;20227;-63
2021/03/30 06:03:42;;;;;;;27.67;12.85;;;;;;;;;;5117051;27;20715;-63
2021/03/30 06:06:09;;;;;;;20.48;13.23;;;;;;;;;;5117160;28;20240;-63
2021/03/30 06:08:36;;;;;;;24.17;12.82;;;;;;;;;;5117217;28;20288;-63
2021/03/30 06:11:05;;;;;;;21.77;13.32;;;;;;;;;;5117467;28;20232;-63
2021/03/30 06:13:45;;;;;;;22.67;12.75;;;;;;;;;;5116619;28;20665;-63
2021/03/30 06:16:25;;;;;;;35.50;13.20;;;;;;;;;;5117203;28;20559;-64
2021/03/30 06:19:02;;;;;;;22.83;13.13;;;;;;;;;;5117377;27;20241;-65
2021/03/30 06:21:29;;;;;;;21.38;13.50;;;;;;;;;;5116625;28;20234;-64
2021/03/30 06:23:59;;;;;;;24.08;13.48;;;;;;;;;;5116215;27;20304;-63
2021/03/30 06:26:26;;;;;;;55.92;28.13;;;;;;;;;;5116596;28;20198;-64
2021/03/30 06:28:53;;;;;;;21.95;12.45;;;;;;;;;;5116356;28;20275;-64
2021/03/30 06:31:19;;;;;;;21.63;13.23;;;;;;;;;;5116221;28;20232;-64
2021/03/30 06:33:48;;;;;;;20.50;12.80;;;;;;;;;;5116191;28;20208;-64
2021/03/30 06:36:15;;;;;;;25.88;13.15;;;;;;;;;;5116705;28;20194;-64
2021/03/30 06:38:54;;;;;;;24.95;14.13;;;;;;;;;;5116448;27;20190;-64
2021/03/30 06:41:32;;;;;;;24.63;13.50;;;;;;;;;;5116471;28;20193;-63
2021/03/30 06:46:51;;;;;;;23.15;14.57;;;;;;;;;;5116303;28;20601;-63
2021/03/30 06:49:18;;;;;;;22.00;13.02;;;;;;;;;;5116378;28;20237;-64
2021/03/30 06:51:45;;;;;;;28.92;13.77;;;;;;;;;;5115837;28;20234;-65
2021/03/30 06:54:13;;;;;;;22.25;12.88;;;;;;;;;;5116111;28;20207;-64
2021/03/30 06:56:47;;;;;;;21.90;14.00;;;;;;;;;;5115455;27;20196;-64
2021/03/30 06:59:14;;;;;;;21.58;14.60;;;;;;;;;;5116442;28;20191;-64
2021/03/30 07:01:42;;;;;;;23.42;12.05;;;;;;;;;;5116776;28;20576;-64
2021/03/30 07:04:09;;;;;;;25.67;14.25;;;;;;;;;;5116322;28;20269;-64
2021/03/30 07:06:37;;;;;;;21.50;13.45;;;;;;;;;;5115560;28;20216;-64
2021/03/30 07:09:05;;;;;;;24.20;14.43;;;;;;;;;;5115886;28;20227;-64
2021/03/30 07:11:34;;;;;;;29.58;14.15;;;;;;;;;;5115814;28;20277;-64
2021/03/30 07:14:01;;;;;;;23.48;13.10;;;;;;;;;;5115679;28;20196;-64
2021/03/30 07:16:31;;;;;;;18.80;12.23;;;;;;;;;;5116378;28;20214;-64
2021/03/30 07:18:59;;;;;;;21.23;14.68;;;;;;;;;;5115362;28;20179;-64
2021/03/30 07:21:27;;;;;;;30.88;15.57;;;;;;;;;;5115524;28;20210;-66
2021/03/30 07:23:56;;;;;;;21.50;14.27;;;;;;;;;;5115427;28;20220;-64
2021/03/30 07:26:24;;;;;;;23.48;12.90;;;;;;;;;;5116065;28;20194;-64
2021/03/30 07:28:54;;;;;;;21.23;13.40;;;;;;;;;;5115032;28;20738;-65
2021/03/30 07:31:24;;;;;;;27.60;14.25;;;;;;;;;;5115806;28;20483;-64
2021/03/30 07:33:57;;;;;;;27.50;16.38;;;;;;;;;;5114973;28;20648;-64
2021/03/30 07:36:26;;;;;;;24.27;14.98;;;;;;;;;;5116027;28;20204;-64
2021/03/30 07:38:54;;;;;;;25.45;15.80;;;;;;;;;;5115389;28;20235;-64
2021/03/30 07:41:22;;;;;;;34.28;16.60;;;;;;;;;;5115319;28;20211;-64
2021/03/30 07:43:49;;;;;;;22.38;14.10;;;;;;;;;;5114976;28;20311;-65
2021/03/30 07:46:17;;;;;;;29.90;16.50;;;;;;;;;;5115019;28;20195;-64
2021/03/30 07:48:44;;;;;;;22.63;14.57;;;;;;;;;;5114973;28;20528;-64
2021/03/30 07:51:11;;;;;;;29.30;15.40;;;;;;;;;;5114974;28;20466;-64
2021/03/30 07:53:43;;;;;;;23.42;14.23;;;;;;;;;;5114602;28;20454;-64
2021/03/30 07:56:10;;;;;;;25.23;15.53;;;;;;;;;;5115181;28;20239;-64
2021/03/30 07:58:44;;;;;;;32.10;14.80;;;;;;;;;;5114478;28;20935;-64
2021/03/30 08:01:12;;;;;;;24.83;14.77;;;;;;;;;;5114959;28;20271;-64
2021/03/30 08:03:40;;;;;;;29.90;16.67;;;;;;;;;;5114503;28;20239;-64
2021/03/30 08:06:08;;;;;;;29.70;15.63;;;;;;;;;;5114444;28;20532;-64
2021/03/30 08:08:46;;;;;;;27.53;15.70;;;;;;;;;;5114099;28;20478;-63
2021/03/30 08:11:13;;;;;;;28.00;16.07;;;;;;;;;;5114350;28;20931;-64
2021/03/30 08:13:49;;;;;;;35.60;16.10;;;;;;;;;;5114474;28;20467;-64
2021/03/30 08:16:17;;;;;;;27.70;16.87;;;;;;;;;;5114392;28;20427;-63
2021/03/30 08:18:46;;;;;;;33.93;17.33;;;;;;;;;;5114149;28;20450;-63
2021/03/30 08:21:13;;;;;;;26.63;16.30;;;;;;;;;;5114110;28;20488;-64
2021/03/30 08:23:58;;;;;;;24.03;15.77;;;;;;;;;;5113937;28;21010;-63
2021/03/30 08:26:26;;;;;;;29.17;16.50;;;;;;;;;;5114737;28;20533;-64
2021/03/30 08:28:54;;;;;;;30.20;17.57;;;;;;;;;;5114132;28;20507;-64
2021/03/30 08:31:22;;;;;;;29.57;16.77;;;;;;;;;;5114153;28;20453;-64
2021/03/30 08:33:51;;;;;;;29.90;16.20;;;;;;;;;;5114153;28;20575;-64
2021/03/30 08:36:22;;;;;;;29.80;16.93;;;;;;;;;;5113707;28;20439;-63
2021/03/30 08:38:49;;;;;;;26.63;15.87;;;;;;;;;;5113690;28;20479;-64
2021/03/30 08:41:34;;;;;;;26.83;15.23;;;;;;;;;;5113696;28;20480;-64
2021/03/30 08:44:11;;;;;;;34.03;17.10;;;;;;;;;;5113859;28;20516;-64
2021/03/30 08:46:38;;;;;;;27.73;16.70;;;;;;;;;;5114175;28;20441;-64
2021/03/30 08:49:22;;;;;;;24.77;16.07;;;;;;;;;;5113730;28;20989;-64
2021/03/30 08:51:51;;;;;;;28.30;16.73;;;;;;;;;;5113771;28;20478;-63
2021/03/30 08:54:18;;;;;;;29.37;15.70;;;;;;;;;;5113740;28;20453;-63
2021/03/30 08:56:45;;;;;;;28.80;16.13;;;;;;;;;;5113640;28;20454;-64
2021/03/30 08:59:12;;;;;;;27.00;14.97;;;;;;;;;;5113401;28;20446;-64
2021/03/30 09:01:39;;;;;;;29.73;15.87;;;;;;;;;;5113467;28;20473;-63
2021/03/30 09:04:10;;;;;;;29.07;15.87;;;;;;;;;;5113732;28;20486;-64
2021/03/30 09:06:39;;;;;;;30.50;17.67;;;;;;;;;;5114665;28;20430;-63
2021/03/30 09:09:19;;;;;;;27.63;15.60;;;;;;;;;;5113412;28;20442;-64
2021/03/30 09:11:46;;;;;;;28.13;15.80;;;;;;;;;;5113802;28;20916;-63
2021/03/30 09:14:16;;;;;;;29.10;17.03;;;;;;;;;;5113965;28;20968;-64
2021/03/30 09:16:44;;;;;;;30.80;17.40;;;;;;;;;;5113633;28;20443;-64
2021/03/30 09:19:23;;;;;;;27.43;15.90;;;;;;;;;;5100788;28;20534;-64
2021/03/30 09:21:54;;;;;;;27.07;16.80;;;;;;;;;;5096393;28;20431;-64
2021/03/30 09:24:32;;;;;;;32.60;17.43;;;;;;;;;;5114212;28;20477;-64
2021/03/30 09:26:59;;;;;;;26.73;15.50;;;;;;;;;;5118338;28;20443;-64
2021/03/30 09:29:26;;;;;;;34.47;17.20;;;;;;;;;;5117173;28;20440;-64
2021/03/30 09:31:53;;;;;;;25.00;15.60;;;;;;;;;;5113704;28;20427;-64
2021/03/30 09:34:20;;;;;;;24.30;15.13;;;;;;;;;;5096970;28;20999;-65
2021/03/30 09:36:47;;;;;;;25.93;16.60;;;;;;;;;;5097387;28;20522;-64
2021/03/30 09:39:18;;;;;;;32.60;17.60;;;;;;;;;;5096942;28;20439;-64
2021/03/30 09:41:47;;;;;;;27.10;13.73;;;;;;;;;;5096120;28;20901;-64
2021/03/30 09:44:14;;;;;;;19.27;11.97;;;;;;;;;;5096897;28;20475;-65
2021/03/30 09:46:41;;;;;;;24.40;13.47;;;;;;;;;;5097248;28;20526;-65
2021/03/30 09:49:09;;;;;;;22.90;12.60;;;;;;;;;;5096728;28;20443;-65
2021/03/30 09:51:37;;;;;;;23.17;12.93;;;;;;;;;;5096694;28;20436;-64
2021/03/30 09:54:19;;;;;;;28.73;15.93;;;;;;;;;;5097151;28;20447;-65
2021/03/30 09:56:46;;;;;;;19.40;13.20;;;;;;;;;;5097231;28;20452;-65
2021/03/30 09:59:18;;;;;;;24.40;14.10;;;;;;;;;;5096588;28;20496;-64
2021/03/30 10:01:46;;;;;;;24.03;13.50;;;;;;;;;;5096303;28;20510;-64
2021/03/30 10:04:12;;;;;;;25.30;15.40;;;;;;;;;;5096232;28;20483;-64
2021/03/30 10:06:39;;;;;;;19.10;12.47;;;;;;;;;;5096235;28;20528;-64
2021/03/30 10:09:07;;;;;;;20.83;13.00;;;;;;;;;;5096119;28;20447;-64
2021/03/30 10:11:35;;;;;;;19.80;13.33;;;;;;;;;;5095944;28;20439;-65
2021/03/30 10:14:16;;;;;;;19.67;12.70;;;;;;;;;;5096360;28;20478;-64
2021/03/30 10:16:43;;;;;;;24.73;13.43;;;;;;;;;;5094117;28;20463;-64
2021/03/30 10:19:10;;;;;;;24.50;15.07;;;;;;;;;;5096239;28;20829;-65
2021/03/30 10:21:37;;;;;;;27.07;16.53;;;;;;;;;;5095912;28;20436;-64
2021/03/30 10:24:11;;;;;;;33.63;16.23;;;;;;;;;;5095944;28;20582;-64
2021/03/30 10:26:39;;;;;;;20.10;12.90;;;;;;;;;;5096472;28;20436;-65
2021/03/30 10:29:08;;;;;;;26.33;14.50;;;;;;;;;;5095679;28;20455;-65
2021/03/30 10:31:38;;;;;;;30.57;17.50;;;;;;;;;;5095448;28;20444;-64
2021/03/30 10:34:20;;;;;;;24.13;15.33;;;;;;;;;;5096153;28;20572;-65
2021/03/30 10:36:46;;;;;;;19.57;13.23;;;;;;;;;;5096072;28;20788;-65
2021/03/30 10:39:13;;;;;;;22.00;13.33;;;;;;;;;;5095533;28;20468;-65
2021/03/30 10:41:42;;;;;;;23.33;14.60;;;;;;;;;;5095736;28;20447;-64
2021/03/30 10:44:10;;;;;;;24.37;13.97;;;;;;;;;;5096408;28;20475;-65
2021/03/30 10:46:41;;;;;;;18.10;12.10;;;;;;;;;;5096067;28;20466;-65
2021/03/30 10:49:08;;;;;;;19.47;12.23;;;;;;;;;;5096322;28;20518;-64
2021/03/30 10:51:37;;;;;;;24.53;12.80;;;;;;;;;;5095848;28;20527;-65
2021/03/30 10:54:06;;;;;;;21.20;12.73;;;;;;;;;;5095539;28;20440;-64
2021/03/30 10:56:33;;;;;;;22.30;14.10;;;;;;;;;;5095502;28;20447;-64
2021/03/30 10:59:07;;;;;;;20.63;14.03;;;;;;;;;;5095692;28;20439;-65
2021/03/30 11:01:34;;;;;;;21.50;12.23;;;;;;;;;;5095751;28;20569;-64
2021/03/30 11:04:01;;;;;;;23.77;12.97;;;;;;;;;;5095209;28;20532;-64
2021/03/30 11:06:27;;;;;;;25.20;13.93;;;;;;;;;;5095381;28;20440;-64
2021/03/30 11:08:54;;;;;;;23.60;14.77;;;;;;;;;;5095491;28;20551;-64
2021/03/30 11:11:21;;;;;;;25.10;13.37;;;;;;;;;;5095216;28;20460;-64
2021/03/30 11:13:48;;;;;;;18.33;11.90;;;;;;;;;;5094961;28;20475;-64
2021/03/30 11:16:15;;;;;;;16.87;11.30;;;;;;;;;;5095339;28;20855;-65
2021/03/30 11:18:42;;;;;;;19.60;11.60;;;;;;;;;;5095073;28;20490;-64
2021/03/30 11:21:09;;;;;;;19.17;11.10;;;;;;;;;;5095040;28;20465;-64
2021/03/30 11:23:37;;;;;;;13.47;9.93;;;;;;;;;;5094825;28;20872;-65
2021/03/30 11:26:04;;;;;;;12.60;8.13;;;;;;;;;;5094743;28;20439;-65
2021/03/30 11:28:36;;;;;;;20.83;10.53;;;;;;;;;;5094839;28;20439;-65
2021/03/30 11:31:06;;;;;;;15.50;9.73;;;;;;;;;;5094473;28;20438;-64
2021/03/30 11:33:37;;;;;;;23.73;9.90;;;;;;;;;;5094770;28;20952;-64
2021/03/30 11:36:10;;;;;;;15.33;8.30;;;;;;;;;;5094852;28;20433;-64
2021/03/30 11:38:37;;;;;;;14.13;8.13;;;;;;;;;;5094729;28;20432;-65
2021/03/30 11:41:04;;;;;;;16.33;7.70;;;;;;;;;;5094367;28;21027;-64
2021/03/30 11:43:30;;;;;;;12.20;8.57;;;;;;;;;;5093593;28;20489;-65
2021/03/30 11:45:57;;;;;;;15.87;9.97;;;;;;;;;;5094077;28;20439;-64
2021/03/30 11:48:24;;;;;;;14.87;8.87;;;;;;;;;;5094692;28;20526;-64
2021/03/30 11:50:51;;;;;;;15.73;9.57;;;;;;;;;;5094566;28;20475;-66
2021/03/30 11:53:18;;;;;;;16.20;9.00;;;;;;;;;;5094154;28;20523;-65
2021/03/30 11:55:45;;;;;;;18.30;10.80;;;;;;;;;;5094152;28;20490;-65
2021/03/30 11:58:12;;;;;;;15.00;9.90;;;;;;;;;;5094579;28;20535;-65
2021/03/30 12:00:38;;;;;;;18.33;11.00;;;;;;;;;;5094160;28;20440;-64
2021/03/30 12:03:05;;;;;;;19.63;11.67;;;;;;;;;;5094013;28;20471;-65
2021/03/30 12:05:32;;;;;;;17.10;10.67;;;;;;;;;;5094409;28;20507;-65
2021/03/30 12:08:00;;;;;;;17.20;11.87;;;;;;;;;;5094254;28;20469;-65
2021/03/30 12:10:27;;;;;;;19.83;13.33;;;;;;;;;;5093868;28;20522;-65
2021/03/30 12:12:53;;;;;;;20.40;12.67;;;;;;;;;;5093781;28;20531;-64
2021/03/30 12:15:20;;;;;;;23.97;12.27;;;;;;;;;;5093622;28;20968;-65
2021/03/30 12:17:47;;;;;;;19.47;11.20;;;;;;;;;;5094294;28;20432;-64
2021/03/30 12:20:15;;;;;;;21.33;13.50;;;;;;;;;;5094204;28;20476;-64
2021/03/30 12:22:42;;;;;;;19.67;12.33;;;;;;;;;;5093219;28;20437;-64
2021/03/30 12:25:10;;;;;;;20.77;12.47;;;;;;;;;;5093257;28;20595;-64
2021/03/30 12:27:37;;;;;;;21.70;12.97;;;;;;;;;;5093903;28;20440;-64
2021/03/30 12:30:04;;;;;;;33.90;14.17;;;;;;;;;;5093816;28;20527;-64
2021/03/30 12:32:31;;;;;;;19.53;11.63;;;;;;;;;;5093855;28;21036;-64
2021/03/30 12:34:57;;;;;;;17.40;10.60;;;;;;;;;;5093220;28;20539;-65
2021/03/30 12:37:24;;;;;;;25.73;12.83;;;;;;;;;;5093329;28;20532;-64
2021/03/30 12:39:51;;;;;;;23.10;12.13;;;;;;;;;;5093227;28;20444;-64
2021/03/30 12:42:18;;;;;;;24.13;12.93;;;;;;;;;;5093335;28;20848;-64
2021/03/30 12:44:45;;;;;;;20.63;12.83;;;;;;;;;;5093314;28;20571;-64
2021/03/30 12:47:12;;;;;;;22.20;13.40;;;;;;;;;;5093338;28;20434;-64
2021/03/30 12:49:39;;;;;;;24.87;12.77;;;;;;;;;;5093435;28;20544;-64
2021/03/30 12:52:05;;;;;;;20.40;12.70;;;;;;;;;;5093255;28;20952;-64
2021/03/30 12:54:32;;;;;;;19.93;12.37;;;;;;;;;;5092568;28;20533;-64
2021/03/30 12:56:59;;;;;;;24.40;12.60;;;;;;;;;;5092815;28;20443;-64
2021/03/30 12:59:26;;;;;;;19.03;12.00;;;;;;;;;;5092812;28;20874;-65
2021/03/30 13:01:53;;;;;;;30.07;12.13;;;;;;;;;;5092645;28;20544;-67
2021/03/30 13:04:20;;;;;;;23.80;13.33;;;;;;;;;;5092982;28;20585;-69
2021/03/30 13:06:47;;;;;;;23.17;13.80;;;;;;;;;;5092532;28;20476;-67
2021/03/30 13:09:14;;;;;;;22.77;12.37;;;;;;;;;;5093319;28;20511;-68
2021/03/30 13:11:40;;;;;;;20.73;11.70;;;;;;;;;;5092721;28;20499;-68
2021/03/30 13:14:07;;;;;;;26.77;13.67;;;;;;;;;;5097838;28;20501;-67
2021/03/30 13:16:35;;;;;;;25.63;14.73;;;;;;;;;;5107186;28;21007;-66
2021/03/30 13:19:02;;;;;;;27.27;13.83;;;;;;;;;;5112990;28;20524;-67
2021/03/30 13:21:28;;;;;;;25.27;14.27;;;;;;;;;;5112750;28;20996;-67
2021/03/30 13:23:56;;;;;;;23.53;14.60;;;;;;;;;;5113318;28;20709;-67
2021/03/30 13:26:23;;;;;;;26.00;15.30;;;;;;;;;;5112840;28;20446;-67
2021/03/30 13:28:49;;;;;;;20.80;13.20;;;;;;;;;;5112951;28;20534;-67
2021/03/30 13:31:16;;;;;;;23.17;14.57;;;;;;;;;;5112837;28;20439;-66
2021/03/30 13:33:44;;;;;;;26.17;16.90;;;;;;;;;;5112783;28;20532;-68
2021/03/30 13:36:11;;;;;;;26.07;16.23;;;;;;;;;;5112448;28;20469;-66
2021/03/30 13:38:37;;;;;;;25.00;15.57;;;;;;;;;;5112396;28;20444;-66
2021/03/30 13:41:04;;;;;;;26.60;15.73;;;;;;;;;;5112890;28;20469;-67
2021/03/30 13:43:31;;;;;;;25.47;16.00;;;;;;;;;;5112721;28;20894;-67
2021/03/30 13:45:58;;;;;;;24.00;13.90;;;;;;;;;;5112522;28;20525;-68
2021/03/30 13:48:25;;;;;;;24.97;15.70;;;;;;;;;;5112105;28;20442;-66
2021/03/30 13:50:52;;;;;;;25.40;16.03;;;;;;;;;;5112680;28;20453;-68
2021/03/30 13:53:37;;;;;;;26.00;14.67;;;;;;;;;;5112310;28;20763;-68
2021/03/30 13:56:04;;;;;;;24.70;15.83;;;;;;;;;;5112408;28;20513;-67
2021/03/30 13:58:31;;;;;;;27.03;15.90;;;;;;;;;;5112158;28;20534;-68
2021/03/30 14:00:58;;;;;;;24.67;16.13;;;;;;;;;;5112403;28;20443;-68
2021/03/30 14:03:24;;;;;;;24.77;15.10;;;;;;;;;;5112547;28;20514;-68
2021/03/30 14:05:51;;;;;;;26.93;17.60;;;;;;;;;;5112909;28;20502;-67
2021/03/30 14:08:19;;;;;;;24.40;17.40;;;;;;;;;;5115871;28;20521;-68
2021/03/30 14:10:45;;;;;;;26.03;16.53;;;;;;;;;;5116332;28;20843;-67
2021/03/30 14:13:15;;;;;;;27.27;16.80;;;;;;;;;;5115419;28;20492;-67
2021/03/30 14:15:46;;;;;;;28.50;17.30;;;;;;;;;;5115704;28;20449;-68
2021/03/30 14:18:22;;;;;;;29.30;17.70;;;;;;;;;;5116182;28;20459;-67
2021/03/30 14:20:52;;;;;;;24.73;16.10;;;;;;;;;;5116031;28;20427;-66
2021/03/30 14:23:37;;;;;;;25.90;16.80;;;;;;;;;;5116709;28;20533;-66
2021/03/30 14:26:07;;;;;;;28.37;16.50;;;;;;;;;;5115832;28;20451;-68
2021/03/30 14:28:34;;;;;;;23.97;15.47;;;;;;;;;;5115892;28;20466;-67
2021/03/30 14:31:01;;;;;;;19.70;14.30;;;;;;;;;;5116020;28;20517;-67